Starrucca, Pennsylvania
Current Conditions -  °F | °C
As of 3:53 AM on Monday 20 Oct 2014 (Local Time) from KBGM Reporting Station
Overcast Overcast  
Wind Chill: 30°   Ceiling: 11000
Heat Index: 34°   Visibility: 10mi
Dew Point: 28°   Wind: 5mph
Humidity: 79%   Direction: 220°SW
Pressure: 30"   Gusts: NA
Location:  41.9°N, 75.47°W
Report Text: KBGM 200753Z AUTO 22004KT 10SM OVC110 01/M02 A3000 RMK AO2 SLP172 T00111022
Loading
Personal Weather Stations






























Interactive Weather Map
Tropical Storm Tracking
New forecast layout! Learn more

10-Day Weather Forecast

Advertisements
Track Severe Weather on mobile